sensor_id;sensor_type;location;lat;lon;timestamp;P1;durP1;ratioP1;P2;durP2;ratioP2
5519;SDS011;2782;52.362;10.012;2023-05-10T00:00:56;23.63;;;12.55;;
5519;SDS011;2782;52.362;10.012;2023-05-10T00:01:57;24.27;;;12.90;;
5519;SDS011;2782;52.362;10.012;2023-05-10T00:02:58;26.98;;;12.57;;
5519;SDS011;2782;52.362;10.012;2023-05-10T00:03:59;21.80;;;13.03;;
5519;SDS011;2782;52.362;10.012;2023-05-10T00:05:01;25.45;;;12.18;;
5519;SDS011;2782;52.362;10.012;2023-05-10T00:06:01;26.40;;;11.97;;
5519;SDS011;2782;52.362;10.012;2023-05-10T00:07:04;21.13;;;11.50;;
5519;SDS011;2782;52.362;10.012;2023-05-10T00:08:05;25.33;;;13.10;;
5519;SDS011;2782;52.362;10.012;2023-05-10T00:09:07;22.33;;;12.40;;
5519;SDS011;2782;52.362;10.012;2023-05-10T00:10:08;22.87;;;11.53;;
5519;SDS011;2782;52.362;10.012;2023-05-10T00:11:09;25.10;;;12.68;;
5519;SDS011;2782;52.362;10.012;2023-05-10T00:12:10;24.77;;;12.43;;
5519;SDS011;2782;52.362;10.012;2023-05-10T00:13:12;24.83;;;12.43;;
5519;SDS011;2782;52.362;10.012;2023-05-10T00:14:13;24.45;;;12.75;;
5519;SDS011;2782;52.362;10.012;2023-05-10T00:15:14;21.70;;;12.25;;
5519;SDS011;2782;52.362;10.012;2023-05-10T00:16:15;29.53;;;12.97;;
5519;SDS011;2782;52.362;10.012;2023-05-10T00:17:16;25.10;;;12.32;;
5519;SDS011;2782;52.362;10.012;2023-05-10T00:18:17;22.20;;;11.77;;
5519;SDS011;2782;52.362;10.012;2023-05-10T00:19:19;19.05;;;11.25;;
5519;SDS011;2782;52.362;10.012;2023-05-10T00:20:19;19.63;;;11.17;;
5519;SDS011;2782;52.362;10.012;2023-05-10T00:21:21;22.10;;;12.20;;
5519;SDS011;2782;52.362;10.012;2023-05-10T00:22:23;22.97;;;11.80;;
5519;SDS011;2782;52.362;10.012;2023-05-10T00:23:25;20.90;;;11.35;;
5519;SDS011;2782;52.362;10.012;2023-05-10T00:24:25;22.63;;;12.17;;
5519;SDS011;2782;52.362;10.012;2023-05-10T00:25:27;20.33;;;10.95;;
5519;SDS011;2782;52.362;10.012;2023-05-10T00:26:28;21.33;;;12.50;;
5519;SDS011;2782;52.362;10.012;2023-05-10T00:27:29;19.70;;;10.52;;
5519;SDS011;2782;52.362;10.012;2023-05-10T00:28:30;24.63;;;12.17;;
5519;SDS011;2782;52.362;10.012;2023-05-10T00:29:32;22.10;;;11.98;;
5519;SDS011;2782;52.362;10.012;2023-05-10T00:30:33;21.88;;;11.45;;
5519;SDS011;2782;52.362;10.012;2023-05-10T00:31:35;26.23;;;11.45;;
5519;SDS011;2782;52.362;10.012;2023-05-10T00:32:35;19.63;;;10.87;;
5519;SDS011;2782;52.362;10.012;2023-05-10T00:33:37;23.80;;;11.98;;
5519;SDS011;2782;52.362;10.012;2023-05-10T00:34:38;20.73;;;11.33;;
5519;SDS011;2782;52.362;10.012;2023-05-10T00:35:39;22.20;;;11.20;;
5519;SDS011;2782;52.362;10.012;2023-05-10T00:36:40;22.03;;;11.73;;
5519;SDS011;2782;52.362;10.012;2023-05-10T00:37:43;23.50;;;12.45;;
5519;SDS011;2782;52.362;10.012;2023-05-10T00:38:43;20.30;;;11.27;;
5519;SDS011;2782;52.362;10.012;2023-05-10T00:39:45;21.75;;;10.98;;
5519;SDS011;2782;52.362;10.012;2023-05-10T00:40:46;21.77;;;11.93;;
5519;SDS011;2782;52.362;10.012;2023-05-10T00:41:48;21.83;;;11.43;;
5519;SDS011;2782;52.362;10.012;2023-05-10T00:42:48;22.90;;;11.40;;
5519;SDS011;2782;52.362;10.012;2023-05-10T00:43:50;20.83;;;10.65;;
5519;SDS011;2782;52.362;10.012;2023-05-10T00:44:51;22.20;;;12.17;;
5519;SDS011;2782;52.362;10.012;2023-05-10T00:45:52;21.00;;;10.68;;
5519;SDS011;2782;52.362;10.012;2023-05-10T00:46:53;20.63;;;10.70;;
5519;SDS011;2782;52.362;10.012;2023-05-10T00:47:55;20.10;;;10.95;;
5519;SDS011;2782;52.362;10.012;2023-05-10T00:48:56;21.47;;;11.60;;
5519;SDS011;2782;52.362;10.012;2023-05-10T00:49:58;26.17;;;12.45;;
5519;SDS011;2782;52.362;10.012;2023-05-10T00:51:00;22.13;;;11.75;;
5519;SDS011;2782;52.362;10.012;2023-05-10T00:52:02;25.23;;;11.88;;
5519;SDS011;2782;52.362;10.012;2023-05-10T00:53:05;23.05;;;11.70;;
5519;SDS011;2782;52.362;10.012;2023-05-10T00:54:07;20.88;;;11.43;;
5519;SDS011;2782;52.362;10.012;2023-05-10T00:55:08;19.90;;;11.37;;
5519;SDS011;2782;52.362;10.012;2023-05-10T00:56:10;23.13;;;10.82;;
5519;SDS011;2782;52.362;10.012;2023-05-10T00:57:12;23.85;;;11.95;;
5519;SDS011;2782;52.362;10.012;2023-05-10T00:58:14;18.10;;;10.73;;
5519;SDS011;2782;52.362;10.012;2023-05-10T00:59:14;24.95;;;11.57;;
5519;SDS011;2782;52.362;10.012;2023-05-10T01:00:17;20.02;;;10.98;;
5519;SDS011;2782;52.362;10.012;2023-05-10T01:01:18;17.67;;;10.38;;
5519;SDS011;2782;52.362;10.012;2023-05-10T01:02:20;23.92;;;11.20;;
5519;SDS011;2782;52.362;10.012;2023-05-10T01:03:21;21.73;;;10.90;;
5519;SDS011;2782;52.362;10.012;2023-05-10T01:04:22;22.75;;;11.63;;
5519;SDS011;2782;52.362;10.012;2023-05-10T01:05:25;15.90;;;10.25;;
5519;SDS011;2782;52.362;10.012;2023-05-10T01:06:27;22.88;;;11.60;;
5519;SDS011;2782;52.362;10.012;2023-05-10T01:07:28;19.38;;;9.48;;
5519;SDS011;2782;52.362;10.012;2023-05-10T01:08:31;20.65;;;11.63;;
5519;SDS011;2782;52.362;10.012;2023-05-10T01:09:32;19.77;;;11.13;;
5519;SDS011;2782;52.362;10.012;2023-05-10T01:10:34;20.65;;;10.80;;
5519;SDS011;2782;52.362;10.012;2023-05-10T01:11:35;20.07;;;11.00;;
5519;SDS011;2782;52.362;10.012;2023-05-10T01:12:39;19.58;;;11.20;;
5519;SDS011;2782;52.362;10.012;2023-05-10T01:13:43;19.27;;;10.60;;
5519;SDS011;2782;52.362;10.012;2023-05-10T01:14:51;17.50;;;10.15;;
5519;SDS011;2782;52.362;10.012;2023-05-10T01:15:53;18.40;;;11.00;;
5519;SDS011;2782;52.362;10.012;2023-05-10T01:16:54;19.65;;;11.02;;
5519;SDS011;2782;52.362;10.012;2023-05-10T01:17:56;20.85;;;10.63;;
5519;SDS011;2782;52.362;10.012;2023-05-10T01:18:57;21.53;;;10.80;;
5519;SDS011;2782;52.362;10.012;2023-05-10T01:19:59;25.02;;;10.57;;
5519;SDS011;2782;52.362;10.012;2023-05-10T01:21:03;22.02;;;10.68;;
5519;SDS011;2782;52.362;10.012;2023-05-10T01:22:21;18.45;;;10.77;;
5519;SDS011;2782;52.362;10.012;2023-05-10T01:23:45;17.10;;;10.10;;
5519;SDS011;2782;52.362;10.012;2023-05-10T01:25:11;19.77;;;11.30;;
5519;SDS011;2782;52.362;10.012;2023-05-10T01:26:47;22.08;;;10.65;;
5519;SDS011;2782;52.362;10.012;2023-05-10T01:28:13;22.50;;;11.52;;
5519;SDS011;2782;52.362;10.012;2023-05-10T01:31:21;20.13;;;10.52;;
5519;SDS011;2782;52.362;10.012;2023-05-10T01:32:33;21.30;;;9.95;;
5519;SDS011;2782;52.362;10.012;2023-05-10T01:33:39;19.77;;;10.38;;
5519;SDS011;2782;52.362;10.012;2023-05-10T01:34:49;16.63;;;10.25;;
5519;SDS011;2782;52.362;10.012;2023-05-10T01:35:55;18.27;;;10.60;;
5519;SDS011;2782;52.362;10.012;2023-05-10T01:37:07;21.48;;;11.40;;
5519;SDS011;2782;52.362;10.012;2023-05-10T01:38:13;20.48;;;10.77;;
5519;SDS011;2782;52.362;10.012;2023-05-10T01:39:20;19.70;;;10.00;;
5519;SDS011;2782;52.362;10.012;2023-05-10T01:40:26;18.13;;;9.85;;
5519;SDS011;2782;52.362;10.012;2023-05-10T01:41:36;18.63;;;10.40;;
5519;SDS011;2782;52.362;10.012;2023-05-10T01:42:46;19.27;;;10.02;;
5519;SDS011;2782;52.362;10.012;2023-05-10T01:43:53;19.98;;;11.45;;
5519;SDS011;2782;52.362;10.012;2023-05-10T01:45:00;22.75;;;10.93;;
5519;SDS011;2782;52.362;10.012;2023-05-10T01:46:07;24.40;;;10.93;;
5519;SDS011;2782;52.362;10.012;2023-05-10T01:47:16;17.70;;;10.25;;
5519;SDS011;2782;52.362;10.012;2023-05-10T01:48:23;20.60;;;10.60;;
5519;SDS011;2782;52.362;10.012;2023-05-10T01:49:29;18.83;;;10.00;;
5519;SDS011;2782;52.362;10.012;2023-05-10T01:50:35;18.42;;;9.85;;
5519;SDS011;2782;52.362;10.012;2023-05-10T01:51:39;18.55;;;10.23;;
5519;SDS011;2782;52.362;10.012;2023-05-10T01:52:46;19.00;;;10.60;;
5519;SDS011;2782;52.362;10.012;2023-05-10T01:53:54;18.30;;;9.73;;
5519;SDS011;2782;52.362;10.012;2023-05-10T01:55:00;21.10;;;9.82;;
5519;SDS011;2782;52.362;10.012;2023-05-10T01:56:04;21.88;;;10.45;;
5519;SDS011;2782;52.362;10.012;2023-05-10T01:57:07;20.40;;;9.60;;
5519;SDS011;2782;52.362;10.012;2023-05-10T01:58:13;17.80;;;9.68;;
5519;SDS011;2782;52.362;10.012;2023-05-10T01:59:16;17.10;;;9.77;;
5519;SDS011;2782;52.362;10.012;2023-05-10T02:00:20;18.90;;;10.00;;
5519;SDS011;2782;52.362;10.012;2023-05-10T02:04:29;16.95;;;9.55;;
5519;SDS011;2782;52.362;10.012;2023-05-10T02:05:33;19.77;;;10.25;;
5519;SDS011;2782;52.362;10.012;2023-05-10T02:06:35;18.08;;;10.63;;
5519;SDS011;2782;52.362;10.012;2023-05-10T02:07:38;14.35;;;8.68;;
5519;SDS011;2782;52.362;10.012;2023-05-10T02:08:40;16.83;;;9.85;;
5519;SDS011;2782;52.362;10.012;2023-05-10T02:09:42;16.05;;;9.98;;
5519;SDS011;2782;52.362;10.012;2023-05-10T02:10:47;16.00;;;9.10;;
5519;SDS011;2782;52.362;10.012;2023-05-10T02:11:51;14.70;;;8.52;;
5519;SDS011;2782;52.362;10.012;2023-05-10T02:12:54;17.35;;;9.68;;
5519;SDS011;2782;52.362;10.012;2023-05-10T02:13:58;19.60;;;9.25;;
5519;SDS011;2782;52.362;10.012;2023-05-10T02:15:04;15.82;;;9.32;;
5519;SDS011;2782;52.362;10.012;2023-05-10T02:16:07;16.17;;;9.23;;
5519;SDS011;2782;52.362;10.012;2023-05-10T02:17:09;16.58;;;9.45;;
5519;SDS011;2782;52.362;10.012;2023-05-10T02:18:10;14.27;;;9.17;;
5519;SDS011;2782;52.362;10.012;2023-05-10T02:19:12;16.30;;;10.13;;
5519;SDS011;2782;52.362;10.012;2023-05-10T02:20:16;15.90;;;9.40;;
5519;SDS011;2782;52.362;10.012;2023-05-10T02:21:20;18.25;;;9.70;;
5519;SDS011;2782;52.362;10.012;2023-05-10T02:22:22;16.42;;;8.98;;
5519;SDS011;2782;52.362;10.012;2023-05-10T02:23:26;16.77;;;9.48;;
5519;SDS011;2782;52.362;10.012;2023-05-10T02:24:29;17.40;;;9.45;;
5519;SDS011;2782;52.362;10.012;2023-05-10T02:25:31;18.67;;;8.93;;
5519;SDS011;2782;52.362;10.012;2023-05-10T02:26:33;15.27;;;9.25;;
5519;SDS011;2782;52.362;10.012;2023-05-10T02:27:36;18.25;;;10.05;;
5519;SDS011;2782;52.362;10.012;2023-05-10T02:28:38;18.30;;;9.15;;
5519;SDS011;2782;52.362;10.012;2023-05-10T02:29:41;16.20;;;9.20;;
5519;SDS011;2782;52.362;10.012;2023-05-10T02:30:42;15.70;;;8.85;;
5519;SDS011;2782;52.362;10.012;2023-05-10T02:31:44;17.73;;;9.40;;
5519;SDS011;2782;52.362;10.012;2023-05-10T02:32:46;18.45;;;9.00;;
5519;SDS011;2782;52.362;10.012;2023-05-10T02:33:49;20.75;;;10.45;;
5519;SDS011;2782;52.362;10.012;2023-05-10T02:34:51;19.75;;;9.80;;
5519;SDS011;2782;52.362;10.012;2023-05-10T02:35:55;15.85;;;9.50;;
5519;SDS011;2782;52.362;10.012;2023-05-10T02:36:56;15.80;;;8.63;;
5519;SDS011;2782;52.362;10.012;2023-05-10T02:37:59;15.95;;;9.30;;
5519;SDS011;2782;52.362;10.012;2023-05-10T02:39:00;15.90;;;9.20;;
5519;SDS011;2782;52.362;10.012;2023-05-10T02:40:03;14.98;;;9.32;;
5519;SDS011;2782;52.362;10.012;2023-05-10T02:41:05;17.73;;;9.52;;
5519;SDS011;2782;52.362;10.012;2023-05-10T02:42:09;17.05;;;9.93;;
5519;SDS011;2782;52.362;10.012;2023-05-10T02:43:14;19.90;;;9.52;;
5519;SDS011;2782;52.362;10.012;2023-05-10T02:44:18;17.27;;;8.88;;
5519;SDS011;2782;52.362;10.012;2023-05-10T02:45:20;17.35;;;9.20;;
5519;SDS011;2782;52.362;10.012;2023-05-10T02:46:26;14.10;;;8.05;;
5519;SDS011;2782;52.362;10.012;2023-05-10T02:47:26;15.47;;;9.03;;
5519;SDS011;2782;52.362;10.012;2023-05-10T02:48:28;13.38;;;8.13;;
5519;SDS011;2782;52.362;10.012;2023-05-10T02:49:29;15.30;;;8.65;;
5519;SDS011;2782;52.362;10.012;2023-05-10T02:50:31;15.55;;;8.70;;
5519;SDS011;2782;52.362;10.012;2023-05-10T02:51:35;15.95;;;9.05;;
5519;SDS011;2782;52.362;10.012;2023-05-10T02:52:42;15.52;;;9.02;;
5519;SDS011;2782;52.362;10.012;2023-05-10T02:53:46;16.95;;;9.50;;
5519;SDS011;2782;52.362;10.012;2023-05-10T02:54:50;19.83;;;9.00;;
5519;SDS011;2782;52.362;10.012;2023-05-10T02:55:55;15.00;;;8.48;;
5519;SDS011;2782;52.362;10.012;2023-05-10T02:57:00;15.38;;;8.52;;
5519;SDS011;2782;52.362;10.012;2023-05-10T02:58:05;16.85;;;9.43;;
5519;SDS011;2782;52.362;10.012;2023-05-10T02:59:06;14.95;;;8.15;;
5519;SDS011;2782;52.362;10.012;2023-05-10T03:00:07;13.33;;;8.00;;
5519;SDS011;2782;52.362;10.012;2023-05-10T03:01:09;17.20;;;9.50;;
5519;SDS011;2782;52.362;10.012;2023-05-10T03:02:10;18.13;;;9.23;;
5519;SDS011;2782;52.362;10.012;2023-05-10T03:03:13;15.43;;;9.23;;
5519;SDS011;2782;52.362;10.012;2023-05-10T03:04:14;12.90;;;7.53;;
5519;SDS011;2782;52.362;10.012;2023-05-10T03:05:16;15.10;;;8.70;;
5519;SDS011;2782;52.362;10.012;2023-05-10T03:06:16;15.63;;;9.17;;
5519;SDS011;2782;52.362;10.012;2023-05-10T03:07:19;15.30;;;9.40;;
5519;SDS011;2782;52.362;10.012;2023-05-10T03:08:21;14.32;;;8.40;;
5519;SDS011;2782;52.362;10.012;2023-05-10T03:09:26;18.05;;;9.65;;
5519;SDS011;2782;52.362;10.012;2023-05-10T03:10:29;15.65;;;9.18;;
5519;SDS011;2782;52.362;10.012;2023-05-10T03:11:37;15.70;;;9.15;;
5519;SDS011;2782;52.362;10.012;2023-05-10T03:12:51;14.30;;;8.80;;
5519;SDS011;2782;52.362;10.012;2023-05-10T03:14:04;13.07;;;7.90;;
5519;SDS011;2782;52.362;10.012;2023-05-10T03:15:11;18.00;;;9.25;;
5519;SDS011;2782;52.362;10.012;2023-05-10T03:16:19;15.90;;;8.70;;
5519;SDS011;2782;52.362;10.012;2023-05-10T03:17:25;17.27;;;8.95;;
5519;SDS011;2782;52.362;10.012;2023-05-10T03:18:33;15.07;;;8.80;;
5519;SDS011;2782;52.362;10.012;2023-05-10T03:19:43;13.57;;;8.15;;
5519;SDS011;2782;52.362;10.012;2023-05-10T03:20:48;11.75;;;7.53;;
5519;SDS011;2782;52.362;10.012;2023-05-10T03:21:51;16.30;;;8.30;;
5519;SDS011;2782;52.362;10.012;2023-05-10T03:22:59;14.35;;;8.45;;
5519;SDS011;2782;52.362;10.012;2023-05-10T03:24:05;12.13;;;8.00;;
5519;SDS011;2782;52.362;10.012;2023-05-10T03:25:08;15.93;;;8.60;;
5519;SDS011;2782;52.362;10.012;2023-05-10T03:26:12;13.73;;;7.90;;
5519;SDS011;2782;52.362;10.012;2023-05-10T03:27:18;16.08;;;8.20;;
5519;SDS011;2782;52.362;10.012;2023-05-10T03:28:20;14.13;;;8.00;;
5519;SDS011;2782;52.362;10.012;2023-05-10T03:29:22;11.82;;;7.45;;
5519;SDS011;2782;52.362;10.012;2023-05-10T03:30:25;14.63;;;8.40;;
5519;SDS011;2782;52.362;10.012;2023-05-10T03:31:27;14.25;;;8.52;;
5519;SDS011;2782;52.362;10.012;2023-05-10T03:32:28;17.27;;;8.13;;
5519;SDS011;2782;52.362;10.012;2023-05-10T03:33:32;14.35;;;8.18;;
5519;SDS011;2782;52.362;10.012;2023-05-10T03:34:32;11.67;;;8.17;;
5519;SDS011;2782;52.362;10.012;2023-05-10T03:35:34;15.18;;;8.20;;
5519;SDS011;2782;52.362;10.012;2023-05-10T03:36:34;14.90;;;8.10;;
5519;SDS011;2782;52.362;10.012;2023-05-10T03:37:36;11.27;;;6.93;;
5519;SDS011;2782;52.362;10.012;2023-05-10T03:38:38;12.40;;;7.40;;
5519;SDS011;2782;52.362;10.012;2023-05-10T03:39:40;17.77;;;9.48;;
5519;SDS011;2782;52.362;10.012;2023-05-10T03:40:40;17.17;;;8.63;;
5519;SDS011;2782;52.362;10.012;2023-05-10T03:41:42;15.45;;;7.35;;
5519;SDS011;2782;52.362;10.012;2023-05-10T03:42:43;13.77;;;8.17;;
5519;SDS011;2782;52.362;10.012;2023-05-10T03:43:44;13.88;;;8.05;;
5519;SDS011;2782;52.362;10.012;2023-05-10T03:44:45;12.73;;;7.40;;
5519;SDS011;2782;52.362;10.012;2023-05-10T03:45:49;13.80;;;8.38;;
5519;SDS011;2782;52.362;10.012;2023-05-10T03:46:49;11.47;;;7.90;;
5519;SDS011;2782;52.362;10.012;2023-05-10T03:47:51;14.05;;;8.32;;
5519;SDS011;2782;52.362;10.012;2023-05-10T03:48:52;12.90;;;7.70;;
5519;SDS011;2782;52.362;10.012;2023-05-10T03:49:53;14.30;;;7.45;;
5519;SDS011;2782;52.362;10.012;2023-05-10T03:50:54;13.37;;;7.90;;
5519;SDS011;2782;52.362;10.012;2023-05-10T03:51:55;15.68;;;7.78;;
5519;SDS011;2782;52.362;10.012;2023-05-10T03:52:56;14.27;;;8.67;;
5519;SDS011;2782;52.362;10.012;2023-05-10T03:53:59;11.25;;;7.15;;
5519;SDS011;2782;52.362;10.012;2023-05-10T03:54:59;13.15;;;7.85;;
5519;SDS011;2782;52.362;10.012;2023-05-10T03:56:03;10.40;;;6.78;;
5519;SDS011;2782;52.362;10.012;2023-05-10T03:57:04;13.13;;;7.03;;
5519;SDS011;2782;52.362;10.012;2023-05-10T03:58:05;15.82;;;7.70;;
5519;SDS011;2782;52.362;10.012;2023-05-10T03:59:06;14.80;;;8.03;;
5519;SDS011;2782;52.362;10.012;2023-05-10T04:00:09;13.25;;;7.63;;
5519;SDS011;2782;52.362;10.012;2023-05-10T04:01:10;11.80;;;7.72;;
5519;SDS011;2782;52.362;10.012;2023-05-10T04:02:11;13.00;;;7.57;;
5519;SDS011;2782;52.362;10.012;2023-05-10T04:03:12;11.20;;;7.70;;
5519;SDS011;2782;52.362;10.012;2023-05-10T04:04:14;12.80;;;6.82;;
5519;SDS011;2782;52.362;10.012;2023-05-10T04:05:15;13.63;;;7.47;;
5519;SDS011;2782;52.362;10.012;2023-05-10T04:06:17;14.13;;;7.60;;
5519;SDS011;2782;52.362;10.012;2023-05-10T04:07:17;10.87;;;6.90;;
5519;SDS011;2782;52.362;10.012;2023-05-10T04:08:19;14.82;;;8.25;;
5519;SDS011;2782;52.362;10.012;2023-05-10T04:09:21;12.70;;;7.00;;
5519;SDS011;2782;52.362;10.012;2023-05-10T04:10:22;10.73;;;6.85;;
5519;SDS011;2782;52.362;10.012;2023-05-10T04:11:23;14.83;;;7.40;;
5519;SDS011;2782;52.362;10.012;2023-05-10T04:12:25;10.68;;;6.75;;
5519;SDS011;2782;52.362;10.012;2023-05-10T04:13:26;9.67;;;6.50;;
5519;SDS011;2782;52.362;10.012;2023-05-10T04:14:28;12.55;;;7.40;;
5519;SDS011;2782;52.362;10.012;2023-05-10T04:15:29;14.13;;;8.07;;
5519;SDS011;2782;52.362;10.012;2023-05-10T04:16:30;11.77;;;6.88;;
5519;SDS011;2782;52.362;10.012;2023-05-10T04:17:31;12.87;;;7.83;;
5519;SDS011;2782;52.362;10.012;2023-05-10T04:18:32;12.05;;;7.53;;
5519;SDS011;2782;52.362;10.012;2023-05-10T04:19:33;11.40;;;6.83;;
5519;SDS011;2782;52.362;10.012;2023-05-10T04:20:35;11.30;;;7.70;;
5519;SDS011;2782;52.362;10.012;2023-05-10T04:21:36;12.37;;;7.60;;
5519;SDS011;2782;52.362;10.012;2023-05-10T04:22:37;14.35;;;7.22;;
5519;SDS011;2782;52.362;10.012;2023-05-10T04:23:39;12.70;;;8.30;;
5519;SDS011;2782;52.362;10.012;2023-05-10T04:24:41;10.23;;;7.00;;
5519;SDS011;2782;52.362;10.012;2023-05-10T04:25:43;12.50;;;7.13;;
5519;SDS011;2782;52.362;10.012;2023-05-10T04:26:43;14.80;;;7.57;;
5519;SDS011;2782;52.362;10.012;2023-05-10T04:27:45;13.65;;;7.00;;
5519;SDS011;2782;52.362;10.012;2023-05-10T04:28:46;13.57;;;7.40;;
5519;SDS011;2782;52.362;10.012;2023-05-10T04:29:48;12.68;;;7.32;;
5519;SDS011;2782;52.362;10.012;2023-05-10T04:30:48;11.43;;;7.10;;
5519;SDS011;2782;52.362;10.012;2023-05-10T04:31:50;11.10;;;6.85;;
5519;SDS011;2782;52.362;10.012;2023-05-10T04:32:51;11.30;;;7.20;;
5519;SDS011;2782;52.362;10.012;2023-05-10T04:33:52;10.40;;;6.85;;
5519;SDS011;2782;52.362;10.012;2023-05-10T04:34:53;14.10;;;7.03;;
5519;SDS011;2782;52.362;10.012;2023-05-10T04:35:54;11.50;;;7.40;;
5519;SDS011;2782;52.362;10.012;2023-05-10T04:36:55;10.00;;;6.60;;
5519;SDS011;2782;52.362;10.012;2023-05-10T04:37:56;11.23;;;6.88;;
5519;SDS011;2782;52.362;10.012;2023-05-10T04:38:57;12.97;;;7.60;;
5519;SDS011;2782;52.362;10.012;2023-05-10T04:40:00;14.23;;;7.88;;
5519;SDS011;2782;52.362;10.012;2023-05-10T04:41:04;11.93;;;7.18;;
5519;SDS011;2782;52.362;10.012;2023-05-10T04:42:06;10.75;;;7.28;;
5519;SDS011;2782;52.362;10.012;2023-05-10T04:43:07;10.57;;;6.97;;
5519;SDS011;2782;52.362;10.012;2023-05-10T04:44:08;14.68;;;7.68;;
5519;SDS011;2782;52.362;10.012;2023-05-10T04:45:09;11.70;;;7.30;;
5519;SDS011;2782;52.362;10.012;2023-05-10T04:46:11;10.80;;;7.22;;
5519;SDS011;2782;52.362;10.012;2023-05-10T04:47:12;11.37;;;6.97;;
5519;SDS011;2782;52.362;10.012;2023-05-10T04:48:13;10.13;;;6.43;;
5519;SDS011;2782;52.362;10.012;2023-05-10T04:49:14;10.50;;;6.40;;
5519;SDS011;2782;52.362;10.012;2023-05-10T04:50:16;10.25;;;7.28;;
5519;SDS011;2782;52.362;10.012;2023-05-10T04:51:17;11.43;;;7.37;;
5519;SDS011;2782;52.362;10.012;2023-05-10T04:52:19;11.15;;;6.60;;
5519;SDS011;2782;52.362;10.012;2023-05-10T04:53:19;10.20;;;7.27;;
5519;SDS011;2782;52.362;10.012;2023-05-10T04:54:21;11.20;;;7.00;;
5519;SDS011;2782;52.362;10.012;2023-05-10T04:55:24;10.50;;;6.97;;
5519;SDS011;2782;52.362;10.012;2023-05-10T04:56:24;11.30;;;6.80;;
5519;SDS011;2782;52.362;10.012;2023-05-10T04:57:26;9.85;;;6.75;;
5519;SDS011;2782;52.362;10.012;2023-05-10T04:58:27;10.37;;;6.90;;
5519;SDS011;2782;52.362;10.012;2023-05-10T04:59:29;10.75;;;6.68;;
5519;SDS011;2782;52.362;10.012;2023-05-10T05:00:30;11.30;;;6.50;;
5519;SDS011;2782;52.362;10.012;2023-05-10T05:01:32;10.57;;;7.15;;
5519;SDS011;2782;52.362;10.012;2023-05-10T05:02:34;10.80;;;7.27;;
5519;SDS011;2782;52.362;10.012;2023-05-10T05:03:36;10.50;;;6.97;;
5519;SDS011;2782;52.362;10.012;2023-05-10T05:04:37;8.80;;;5.93;;
5519;SDS011;2782;52.362;10.012;2023-05-10T05:05:38;9.30;;;6.43;;
5519;SDS011;2782;52.362;10.012;2023-05-10T05:06:39;11.73;;;7.20;;
5519;SDS011;2782;52.362;10.012;2023-05-10T05:07:40;10.05;;;6.05;;
5519;SDS011;2782;52.362;10.012;2023-05-10T05:08:41;8.80;;;6.00;;
5519;SDS011;2782;52.362;10.012;2023-05-10T05:09:43;11.88;;;6.70;;
5519;SDS011;2782;52.362;10.012;2023-05-10T05:10:45;10.97;;;6.33;;
5519;SDS011;2782;52.362;10.012;2023-05-10T05:11:47;11.98;;;6.72;;
5519;SDS011;2782;52.362;10.012;2023-05-10T05:12:48;11.52;;;7.15;;
5519;SDS011;2782;52.362;10.012;2023-05-10T05:13:49;10.65;;;6.13;;
5519;SDS011;2782;52.362;10.012;2023-05-10T05:14:50;11.60;;;6.47;;
5519;SDS011;2782;52.362;10.012;2023-05-10T05:15:52;11.23;;;7.00;;
5519;SDS011;2782;52.362;10.012;2023-05-10T05:16:53;12.85;;;6.20;;
5519;SDS011;2782;52.362;10.012;2023-05-10T05:17:55;11.48;;;6.70;;
5519;SDS011;2782;52.362;10.012;2023-05-10T05:18:56;14.43;;;6.40;;
5519;SDS011;2782;52.362;10.012;2023-05-10T05:19:58;11.20;;;6.40;;
5519;SDS011;2782;52.362;10.012;2023-05-10T05:20:58;12.03;;;6.77;;
5519;SDS011;2782;52.362;10.012;2023-05-10T05:22:00;17.13;;;6.57;;
5519;SDS011;2782;52.362;10.012;2023-05-10T05:23:01;11.67;;;6.77;;
5519;SDS011;2782;52.362;10.012;2023-05-10T05:24:03;9.10;;;5.85;;
5519;SDS011;2782;52.362;10.012;2023-05-10T05:25:04;11.70;;;5.80;;
5519;SDS011;2782;52.362;10.012;2023-05-10T05:26:08;12.15;;;6.80;;
5519;SDS011;2782;52.362;10.012;2023-05-10T05:27:08;13.98;;;6.65;;
5519;SDS011;2782;52.362;10.012;2023-05-10T05:28:10;10.40;;;6.28;;
5519;SDS011;2782;52.362;10.012;2023-05-10T05:29:11;13.97;;;7.00;;
5519;SDS011;2782;52.362;10.012;2023-05-10T05:30:12;19.05;;;7.07;;
5519;SDS011;2782;52.362;10.012;2023-05-10T05:31:13;12.20;;;5.87;;
5519;SDS011;2782;52.362;10.012;2023-05-10T05:32:14;18.92;;;6.18;;
5519;SDS011;2782;52.362;10.012;2023-05-10T05:33:15;15.93;;;6.50;;
5519;SDS011;2782;52.362;10.012;2023-05-10T05:34:17;10.63;;;6.70;;
5519;SDS011;2782;52.362;10.012;2023-05-10T05:35:17;11.60;;;6.00;;
5519;SDS011;2782;52.362;10.012;2023-05-10T05:36:19;15.23;;;7.35;;
5519;SDS011;2782;52.362;10.012;2023-05-10T05:37:20;13.43;;;7.40;;
5519;SDS011;2782;52.362;10.012;2023-05-10T05:38:22;14.38;;;7.15;;
5519;SDS011;2782;52.362;10.012;2023-05-10T05:39:24;24.67;;;7.70;;
5519;SDS011;2782;52.362;10.012;2023-05-10T05:40:25;12.90;;;6.33;;
5519;SDS011;2782;52.362;10.012;2023-05-10T05:41:28;11.32;;;6.30;;
5519;SDS011;2782;52.362;10.012;2023-05-10T05:42:28;10.80;;;6.18;;
5519;SDS011;2782;52.362;10.012;2023-05-10T05:43:31;20.13;;;6.93;;
5519;SDS011;2782;52.362;10.012;2023-05-10T05:44:33;11.95;;;7.07;;
5519;SDS011;2782;52.362;10.012;2023-05-10T05:45:34;15.07;;;6.80;;
5519;SDS011;2782;52.362;10.012;2023-05-10T05:46:35;13.90;;;6.70;;
5519;SDS011;2782;52.362;10.012;2023-05-10T05:47:36;26.63;;;7.53;;
5519;SDS011;2782;52.362;10.012;2023-05-10T05:48:37;14.82;;;6.80;;
5519;SDS011;2782;52.362;10.012;2023-05-10T05:49:38;18.07;;;6.60;;
5519;SDS011;2782;52.362;10.012;2023-05-10T05:50:40;10.63;;;6.65;;
5519;SDS011;2782;52.362;10.012;2023-05-10T05:51:40;10.23;;;6.57;;
5519;SDS011;2782;52.362;10.012;2023-05-10T05:52:42;15.55;;;6.70;;
5519;SDS011;2782;52.362;10.012;2023-05-10T05:53:42;14.20;;;7.37;;
5519;SDS011;2782;52.362;10.012;2023-05-10T05:54:44;23.17;;;7.38;;
5519;SDS011;2782;52.362;10.012;2023-05-10T05:55:50;10.13;;;6.17;;
5519;SDS011;2782;52.362;10.012;2023-05-10T05:56:55;14.23;;;6.60;;
5519;SDS011;2782;52.362;10.012;2023-05-10T05:57:56;12.07;;;7.10;;
5519;SDS011;2782;52.362;10.012;2023-05-10T05:58:57;12.60;;;6.28;;
5519;SDS011;2782;52.362;10.012;2023-05-10T05:59:58;16.70;;;6.10;;
5519;SDS011;2782;52.362;10.012;2023-05-10T06:00:59;17.38;;;6.50;;
5519;SDS011;2782;52.362;10.012;2023-05-10T06:02:01;12.45;;;6.40;;
5519;SDS011;2782;52.362;10.012;2023-05-10T06:03:02;10.50;;;6.27;;
5519;SDS011;2782;52.362;10.012;2023-05-10T06:04:04;10.95;;;6.25;;
5519;SDS011;2782;52.362;10.012;2023-05-10T06:05:05;12.20;;;6.60;;
5519;SDS011;2782;52.362;10.012;2023-05-10T06:06:07;10.88;;;5.82;;
5519;SDS011;2782;52.362;10.012;2023-05-10T06:07:09;11.15;;;6.28;;
5519;SDS011;2782;52.362;10.012;2023-05-10T06:08:11;13.07;;;6.30;;
5519;SDS011;2782;52.362;10.012;2023-05-10T06:09:11;14.37;;;6.87;;
5519;SDS011;2782;52.362;10.012;2023-05-10T06:10:13;9.93;;;5.60;;
5519;SDS011;2782;52.362;10.012;2023-05-10T06:11:14;12.77;;;6.40;;
5519;SDS011;2782;52.362;10.012;2023-05-10T06:12:17;11.50;;;7.10;;
5519;SDS011;2782;52.362;10.012;2023-05-10T06:13:17;10.38;;;5.95;;
5519;SDS011;2782;52.362;10.012;2023-05-10T06:14:19;10.65;;;5.22;;
5519;SDS011;2782;52.362;10.012;2023-05-10T06:15:20;13.63;;;6.50;;
5519;SDS011;2782;52.362;10.012;2023-05-10T06:16:22;11.98;;;6.05;;
5519;SDS011;2782;52.362;10.012;2023-05-10T06:17:23;9.13;;;5.47;;
5519;SDS011;2782;52.362;10.012;2023-05-10T06:18:25;12.68;;;6.40;;
5519;SDS011;2782;52.362;10.012;2023-05-10T06:19:26;9.88;;;6.10;;
5519;SDS011;2782;52.362;10.012;2023-05-10T06:20:27;10.57;;;6.55;;
5519;SDS011;2782;52.362;10.012;2023-05-10T06:21:28;10.30;;;5.70;;